Time;durP1;ratioP1;P1;durP2;ratioP2;P2;SDS_P1;SDS_P2;PMS_P1;PMS_P2;Temp;Humidity;BMP_temperature;BMP_pressure;BME280_temperature;BME280_humidity;BME280_pressure;Samples;Min_cycle;Max_cycle;Signal;HPM_P1;HPM_P2
2022/06/04 00:01:49;;;;;;;9.07;6.45;;;11.90;99.90;;;;;;5053645;28;20048;-69
2022/06/04 00:04:16;;;;;;;10.45;6.07;;;11.90;99.90;;;;;;5054822;28;20045;-69
2022/06/04 00:06:43;;;;;;;8.55;5.63;;;11.90;99.90;;;;;;5048103;28;20387;-69
2022/06/04 00:09:10;;;;;;;11.85;6.22;;;12.00;99.90;;;;;;5050118;28;20148;-69
2022/06/04 00:17:04;;;;;;;9.50;5.90;;;11.80;99.90;;;;;;5052203;28;20053;-68
2022/06/04 00:19:30;;;;;;;5.80;4.80;;;11.80;99.90;;;;;;5052494;28;20063;-68
2022/06/04 00:21:55;;;;;;;8.38;4.82;;;11.80;99.90;;;;;;5048703;28;20079;-69
2022/06/04 00:24:21;;;;;;;11.48;5.57;;;11.80;99.90;;;;;;5051986;28;20148;-69
2022/06/04 00:26:47;;;;;;;8.93;5.20;;;11.80;99.90;;;;;;5052407;28;20498;-69
2022/06/04 00:29:13;;;;;;;8.82;5.18;;;11.90;99.90;;;;;;5051271;28;20052;-69
2022/06/04 00:31:39;;;;;;;9.32;4.63;;;11.80;99.90;;;;;;5049291;28;20730;-69
2022/06/04 00:34:05;;;;;;;7.43;4.38;;;11.80;99.90;;;;;;5051660;28;20091;-69
2022/06/04 00:36:32;;;;;;;12.48;5.65;;;11.80;99.90;;;;;;5053397;28;20037;-69
2022/06/04 00:38:59;;;;;;;7.90;4.95;;;11.80;99.90;;;;;;5053699;28;20209;-69
2022/06/04 00:41:27;;;;;;;5.85;4.40;;;12.00;99.90;;;;;;5050412;28;20056;-69
2022/06/04 00:43:58;;;;;;;8.05;4.82;;;11.90;99.90;;;;;;5051198;28;20076;-69
2022/06/04 00:46:53;;;;;;;6.05;4.53;;;11.70;99.90;;;;;;5051656;28;20036;-69
2022/06/04 00:49:18;;;;;;;7.55;4.97;;;12.60;99.90;;;;;;5049261;28;20131;-69
2022/06/04 00:51:48;;;;;;;11.05;4.55;;;11.70;99.90;;;;;;5051769;28;20131;-68
2022/06/04 00:54:14;;;;;;;13.63;5.20;;;11.60;99.90;;;;;;5049388;28;20059;-69
2022/06/04 00:56:57;;;;;;;11.98;4.63;;;11.60;99.90;;;;;;5052359;28;20036;-69
2022/06/04 00:59:36;;;;;;;;;;;11.70;99.90;;;;;;5052306;28;20124;-69
2022/06/04 01:02:02;;;;;;;9.20;4.95;;;11.60;99.90;;;;;;5053397;28;19931;-69
2022/06/04 01:04:55;;;;;;;7.95;4.57;;;11.60;99.90;;;;;;5052754;28;20045;-69
2022/06/04 01:07:34;;;;;;;7.03;4.78;;;11.60;99.90;;;;;;5051326;28;20057;-68
2022/06/04 01:10:22;;;;;;;11.40;4.20;;;11.60;99.90;;;;;;5052381;28;20899;-69
2022/06/04 01:12:55;;;;;;;5.57;4.25;;;11.60;99.90;;;;;;5050520;28;20123;-68
2022/06/04 01:15:42;;;;;;;9.07;4.82;;;11.60;99.90;;;;;;5050039;28;20067;-69
2022/06/04 01:18:18;;;;;;;9.82;4.22;;;12.60;99.90;;;;;;5049750;28;20065;-69
2022/06/04 01:21:08;;;;;;;5.93;4.30;;;11.50;99.90;;;;;;5048498;28;20099;-69
2022/06/04 01:24:01;;;;;;;14.13;5.10;;;11.50;99.90;;;;;;5046902;28;20390;-68
2022/06/04 01:26:52;;;;;;;9.48;3.90;;;11.50;99.90;;;;;;5053201;28;20770;-69
2022/06/04 01:29:21;;;;;;;9.00;3.92;;;11.40;99.90;;;;;;5050393;28;20076;-69
2022/06/04 01:31:54;;;;;;;7.68;4.65;;;11.50;99.90;;;;;;5050315;28;20067;-69
2022/06/04 01:34:34;;;;;;;12.35;4.40;;;11.40;99.90;;;;;;5049463;28;20052;-69
2022/06/04 01:37:09;;;;;;;10.57;4.55;;;11.40;99.90;;;;;;5050173;28;20081;-69
2022/06/04 01:42:27;;;;;;;8.13;4.57;;;11.40;99.90;;;;;;5049518;28;20076;-68
2022/06/04 01:44:55;;;;;;;11.65;4.28;;;11.30;99.90;;;;;;5049759;28;20531;-69
2022/06/04 01:47:22;;;;;;;6.72;3.53;;;11.50;99.90;;;;;;5052082;28;20675;-68
2022/06/04 01:49:54;;;;;;;7.85;3.58;;;11.50;99.90;;;;;;5047581;28;20055;-69
2022/06/04 01:52:32;;;;;;;7.10;3.85;;;11.30;99.90;;;;;;5050204;28;20312;-69
2022/06/04 01:55:16;;;;;;;7.57;4.13;;;11.30;99.90;;;;;;5051841;28;20505;-69
2022/06/04 01:57:43;;;;;;;11.05;4.32;;;11.30;99.90;;;;;;5051656;28;20032;-68
2022/06/04 02:00:24;;;;;;;6.55;4.28;;;11.30;99.90;;;;;;5055527;28;20041;-68
2022/06/04 02:02:54;;;;;;;6.85;4.40;;;11.30;99.90;;;;;;5050092;28;20229;-68
2022/06/04 02:05:25;;;;;;;7.35;4.45;;;11.20;99.90;;;;;;5048803;28;20242;-69
2022/06/04 02:07:54;;;;;;;9.38;4.65;;;11.20;99.90;;;;;;5045816;28;20497;-69
2022/06/04 02:10:42;;;;;;;8.00;4.80;;;11.20;99.90;;;;;;5051668;28;20052;-69
2022/06/04 02:13:10;;;;;;;7.75;4.15;;;11.20;99.90;;;;;;5046921;28;20040;-68
2022/06/04 02:16:06;;;;;;;9.23;4.05;;;11.30;99.90;;;;;;5051368;28;20057;-69
2022/06/04 02:18:32;;;;;;;9.52;5.07;;;11.20;99.90;;;;;;5039555;28;20075;-68
2022/06/04 02:20:57;;;;;;;6.50;4.93;;;11.20;99.90;;;;;;5055940;28;20037;-69
2022/06/04 02:23:24;;;;;;;9.20;5.13;;;11.20;99.90;;;;;;5057105;28;20118;-69
2022/06/04 02:25:51;;;;;;;7.25;4.18;;;11.20;99.90;;;;;;5036736;28;20316;-68
2022/06/04 02:28:17;;;;;;;4.97;4.18;;;11.20;99.90;;;;;;5054754;28;20044;-69
2022/06/04 02:30:56;;;;;;;6.75;4.20;;;11.20;99.90;;;;;;5053250;28;20497;-69
2022/06/04 02:33:41;;;;;;;6.20;4.05;;;11.20;99.90;;;;;;5055129;28;20123;-69
2022/06/04 02:36:44;;;;;;;5.80;4.28;;;11.20;99.90;;;;;;5052543;28;20045;-68
2022/06/04 02:39:15;;;;;;;6.68;4.13;;;11.10;99.90;;;;;;5047761;28;20205;-68
2022/06/04 02:41:53;;;;;;;6.45;3.90;;;11.10;99.90;;;;;;5053427;28;20033;-69
2022/06/04 02:44:28;;;;;;;6.40;4.07;;;11.10;99.90;;;;;;5052811;28;20061;-69
2022/06/04 02:47:12;;;;;;;6.45;4.13;;;11.10;99.90;;;;;;5054141;28;20033;-69
2022/06/04 02:50:00;;;;;;;8.75;4.32;;;11.10;99.90;;;;;;5052196;28;20506;-69
2022/06/04 02:52:26;;;;;;;5.82;3.83;;;11.10;99.90;;;;;;5055035;28;20045;-69
2022/06/04 02:55:14;;;;;;;6.38;3.97;;;11.00;99.90;;;;;;5054196;28;20087;-69
2022/06/04 02:57:44;;;;;;;6.63;4.07;;;11.00;99.90;;;;;;5053241;28;20049;-69
2022/06/04 03:00:17;;;;;;;9.85;4.30;;;11.00;99.90;;;;;;5053602;28;20083;-69
2022/06/04 03:02:44;;;;;;;5.68;4.13;;;11.00;99.90;;;;;;5053175;28;20045;-69
2022/06/04 03:05:14;;;;;;;9.70;4.70;;;11.00;99.90;;;;;;5055266;28;20458;-69
2022/06/04 03:07:43;;;;;;;8.98;3.97;;;11.00;99.90;;;;;;5052005;28;20044;-69
2022/06/04 03:10:17;;;;;;;5.38;3.97;;;11.00;99.90;;;;;;5052979;28;20036;-69
2022/06/04 03:12:43;;;;;;;6.82;4.22;;;11.00;99.90;;;;;;5050937;28;20088;-68
2022/06/04 03:15:10;;;;;;;8.13;4.25;;;11.00;99.90;;;;;;5053085;28;20072;-69
2022/06/04 03:17:37;;;;;;;6.63;3.88;;;11.00;99.90;;;;;;5043733;28;20045;-69
2022/06/04 03:20:03;;;;;;;9.77;4.20;;;10.90;99.90;;;;;;5056103;28;20132;-69
2022/06/04 03:22:29;;;;;;;6.35;4.22;;;10.90;99.90;;;;;;5056139;28;20451;-69
2022/06/04 03:24:55;;;;;;;8.98;4.50;;;10.90;99.90;;;;;;5055354;28;20041;-69
2022/06/04 03:27:20;;;;;;;9.32;4.10;;;10.90;99.90;;;;;;5049819;28;20057;-69
2022/06/04 03:29:46;;;;;;;5.55;3.85;;;10.90;99.90;;;;;;5055195;28;20456;-69
2022/06/04 03:32:11;;;;;;;9.85;4.28;;;10.90;99.90;;;;;;5052986;28;20103;-69
2022/06/04 03:34:37;;;;;;;6.13;3.67;;;10.90;99.90;;;;;;5053640;28;20082;-69
2022/06/04 03:37:03;;;;;;;5.53;4.30;;;10.80;99.90;;;;;;5051467;28;20463;-69
2022/06/04 03:39:29;;;;;;;7.38;4.28;;;10.90;99.90;;;;;;5055427;28;20199;-69
2022/06/04 03:41:55;;;;;;;10.23;4.35;;;10.80;99.90;;;;;;5048868;28;20037;-68
2022/06/04 03:44:20;;;;;;;4.53;3.58;;;10.80;99.90;;;;;;5053059;28;20116;-69
2022/06/04 03:46:46;;;;;;;6.32;3.97;;;10.80;99.90;;;;;;5050646;28;20045;-69
2022/06/04 03:49:11;;;;;;;5.85;3.60;;;10.80;99.90;;;;;;5049289;28;20120;-69
2022/06/04 03:51:39;;;;;;;7.80;4.10;;;10.80;99.90;;;;;;5051434;28;20412;-69
2022/06/04 03:54:05;;;;;;;5.78;4.05;;;10.80;99.90;;;;;;5051950;28;20099;-69
2022/06/04 03:56:31;;;;;;;5.13;3.88;;;10.80;99.90;;;;;;5050579;28;20477;-68
2022/06/04 03:58:57;;;;;;;9.55;4.78;;;10.80;99.90;;;;;;5047519;28;20056;-68
2022/06/04 04:01:25;;;;;;;6.20;3.90;;;10.90;99.90;;;;;;5052695;28;20049;-68
2022/06/04 04:03:51;;;;;;;6.07;3.78;;;10.80;99.90;;;;;;5051864;28;20087;-68
2022/06/04 04:06:23;;;;;;;6.22;4.10;;;10.80;99.90;;;;;;5052873;28;20157;-68
2022/06/04 04:08:49;;;;;;;5.30;4.45;;;10.90;99.90;;;;;;5050929;28;20398;-68
2022/06/04 04:11:19;;;;;;;5.00;4.18;;;10.80;99.90;;;;;;5059646;28;20044;-69
2022/06/04 04:13:44;;;;;;;5.05;3.80;;;10.90;99.90;;;;;;5049246;28;20509;-68
2022/06/04 04:16:13;;;;;;;4.75;3.85;;;10.90;99.90;;;;;;5052542;28;20052;-69
2022/06/04 04:18:39;;;;;;;5.40;3.80;;;10.90;99.90;;;;;;5049689;28;20053;-68
2022/06/04 04:21:07;;;;;;;7.15;4.95;;;10.90;99.90;;;;;;5054892;28;20528;-68
2022/06/04 04:23:33;;;;;;;6.28;4.00;;;10.90;99.90;;;;;;5055121;28;20478;-69
2022/06/04 04:26:00;;;;;;;12.85;4.85;;;10.90;99.90;;;;;;5052446;28;20442;-68
2022/06/04 04:28:26;;;;;;;7.18;3.88;;;10.90;99.90;;;;;;5056185;28;20045;-68
2022/06/04 04:30:52;;;;;;;6.63;4.60;;;11.00;99.90;;;;;;5055368;28;20048;-68
2022/06/04 04:33:18;;;;;;;6.50;4.43;;;11.00;99.90;;;;;;5054972;28;20036;-68
2022/06/04 04:35:45;;;;;;;7.82;4.50;;;11.00;99.90;;;;;;5051880;28;20062;-68
2022/06/04 04:38:11;;;;;;;4.78;3.90;;;11.10;99.90;;;;;;5052048;28;20049;-69
2022/06/04 04:40:40;;;;;;;6.28;4.32;;;11.10;99.90;;;;;;5051726;28;20169;-69
2022/06/04 04:43:06;;;;;;;5.80;4.35;;;11.10;99.90;;;;;;5049905;28;20041;-69
2022/06/04 04:45:32;;;;;;;8.95;4.03;;;11.20;99.90;;;;;;5051806;28;20071;-68
2022/06/04 04:47:57;;;;;;;8.93;4.13;;;11.40;99.90;;;;;;5052925;28;20037;-69
2022/06/04 04:50:27;;;;;;;9.50;4.25;;;11.30;99.90;;;;;;5053807;28;20048;-68
2022/06/04 04:52:54;;;;;;;6.50;4.13;;;11.80;99.90;;;;;;5050654;28;20049;-69
2022/06/04 04:55:20;;;;;;;5.65;4.20;;;11.30;99.90;;;;;;5049442;28;20056;-69
2022/06/04 04:57:47;;;;;;;8.05;4.43;;;11.40;99.90;;;;;;5048681;28;20052;-69
2022/06/04 05:00:15;;;;;;;6.28;4.70;;;11.50;99.90;;;;;;5053534;28;20416;-69
2022/06/04 05:02:41;;;;;;;8.50;4.15;;;11.50;99.90;;;;;;5055435;28;20119;-69
2022/06/04 05:05:07;;;;;;;8.65;4.78;;;11.60;99.90;;;;;;5047924;28;20521;-69
2022/06/04 05:07:33;;;;;;;5.50;4.07;;;11.60;99.90;;;;;;5049440;28;20068;-69
2022/06/04 05:09:59;;;;;;;7.43;4.00;;;11.70;99.90;;;;;;5049197;28;20545;-69
2022/06/04 05:12:25;;;;;;;7.13;4.53;;;11.70;99.90;;;;;;5055864;28;20081;-69
2022/06/04 05:14:50;;;;;;;8.27;4.13;;;11.80;99.90;;;;;;5048212;28;20613;-68
2022/06/04 05:17:16;;;;;;;7.88;4.05;;;12.10;99.90;;;;;;5049532;28;20052;-69
2022/06/04 05:19:41;;;;;;;11.73;5.10;;;11.90;99.90;;;;;;5051685;28;20382;-69
2022/06/04 05:22:07;;;;;;;8.43;3.70;;;11.90;99.90;;;;;;5046493;28;20048;-69
2022/06/04 05:24:34;;;;;;;6.25;4.35;;;11.90;99.90;;;;;;5053329;28;20393;-69
2022/06/04 05:27:04;;;;;;;5.53;4.55;;;12.40;99.90;;;;;;5032525;28;20132;-69
2022/06/04 05:29:31;;;;;;;6.80;3.92;;;12.00;99.90;;;;;;5048011;28;20432;-69
2022/06/04 05:31:58;;;;;;;7.45;4.50;;;12.00;99.90;;;;;;5053067;28;20045;-69
2022/06/04 05:34:24;;;;;;;5.20;3.97;;;12.10;99.90;;;;;;5054492;28;20040;-69
2022/06/04 05:36:53;;;;;;;6.38;4.30;;;12.10;99.90;;;;;;5052742;28;20055;-69
2022/06/04 05:39:20;;;;;;;5.13;4.53;;;12.20;99.90;;;;;;5048878;28;20095;-69
2022/06/04 05:41:45;;;;;;;7.15;3.85;;;12.30;99.90;;;;;;5047586;28;20140;-69
2022/06/04 05:44:12;;;;;;;6.75;4.10;;;12.30;99.90;;;;;;5053105;28;20115;-68
2022/06/04 05:46:42;;;;;;;6.38;4.70;;;12.40;99.90;;;;;;5052385;28;20056;-68
2022/06/04 05:49:11;;;;;;;6.55;4.10;;;12.40;99.90;;;;;;5051328;28;20793;-68
2022/06/04 05:51:37;;;;;;;5.85;4.45;;;12.50;99.90;;;;;;5047624;28;20044;-68
2022/06/04 05:54:03;;;;;;;5.63;3.88;;;12.60;99.90;;;;;;5051477;28;20041;-69
2022/06/04 05:56:32;;;;;;;5.05;3.83;;;12.70;99.90;;;;;;5055321;28;20048;-69
2022/06/04 05:59:00;;;;;;;7.22;4.18;;;12.90;99.90;;;;;;5052237;28;20063;-69
2022/06/04 06:01:28;;;;;;;4.82;3.63;;;13.10;99.90;;;;;;5055237;28;20497;-68
2022/06/04 06:03:55;;;;;;;8.15;4.40;;;12.90;99.90;;;;;;5058891;28;20049;-68
2022/06/04 06:06:24;;;;;;;6.50;3.60;;;12.90;99.90;;;;;;5051949;28;20044;-68
2022/06/04 06:08:51;;;;;;;4.07;3.35;;;12.90;99.90;;;;;;5051824;28;20045;-68
2022/06/04 06:11:17;;;;;;;5.43;3.70;;;12.90;99.90;;;;;;5055889;28;20043;-68
2022/06/04 06:13:44;;;;;;;4.13;3.72;;;13.00;99.90;;;;;;5054761;28;20088;-70
2022/06/04 06:16:17;;;;;;;4.95;3.90;;;13.00;99.90;;;;;;5053104;28;20057;-69
2022/06/04 06:18:43;;;;;;;4.55;3.72;;;13.00;99.90;;;;;;5051981;28;20057;-69
2022/06/04 06:21:17;;;;;;;6.18;3.50;;;13.00;99.90;;;;;;5050418;28;20047;-69
2022/06/04 06:23:43;;;;;;;4.95;3.50;;;13.00;99.90;;;;;;5051028;28;20061;-69
2022/06/04 06:26:23;;;;;;;4.55;3.67;;;13.00;99.90;;;;;;5051265;28;20033;-69
2022/06/04 06:28:49;;;;;;;11.48;3.83;;;12.90;99.90;;;;;;5050866;28;20086;-69
2022/06/04 06:31:18;;;;;;;6.22;3.60;;;12.90;99.90;;;;;;5050527;28;20044;-69
2022/06/04 06:33:44;;;;;;;6.97;3.47;;;12.90;99.90;;;;;;5051978;28;20527;-69
2022/06/04 06:36:12;;;;;;;6.47;4.40;;;12.90;99.90;;;;;;5050886;28;20056;-69
2022/06/04 06:38:38;;;;;;;4.43;4.00;;;13.00;99.90;;;;;;5049030;28;20048;-69
2022/06/04 06:41:06;;;;;;;6.05;3.90;;;13.00;99.90;;;;;;5052359;28;20041;-69
2022/06/04 06:43:37;;;;;;;11.65;4.30;;;13.20;99.90;;;;;;5050240;28;20045;-69
2022/06/04 06:46:12;;;;;;;4.63;4.00;;;13.40;99.90;;;;;;5051885;28;20045;-69
2022/06/04 06:48:40;;;;;;;6.55;3.85;;;13.80;99.90;;;;;;5047620;28;20140;-69
2022/06/04 06:51:13;;;;;;;6.07;4.07;;;13.60;99.90;;;;;;5050205;28;20481;-69
2022/06/04 06:53:40;;;;;;;3.97;3.40;;;13.80;99.90;;;;;;5053801;28;20044;-69
2022/06/04 06:56:19;;;;;;;4.38;3.65;;;14.00;99.90;;;;;;5051689;28;20311;-69
2022/06/04 06:58:45;;;;;;;4.97;3.13;;;14.10;99.90;;;;;;5053029;28;20123;-69
2022/06/04 07:01:11;;;;;;;5.22;3.53;;;14.50;99.90;;;;;;5050659;28;20044;-69
2022/06/04 07:03:38;;;;;;;7.40;3.83;;;14.30;99.90;;;;;;5050339;28;20203;-69
2022/06/04 07:06:05;;;;;;;5.40;4.07;;;14.30;99.90;;;;;;5044589;28;20053;-69
2022/06/04 07:08:31;;;;;;;6.05;3.80;;;14.20;99.90;;;;;;5049087;28;20509;-69
2022/06/04 07:10:56;;;;;;;5.45;3.72;;;14.10;99.90;;;;;;5046527;28;20395;-69
2022/06/04 07:13:22;;;;;;;8.40;4.00;;;14.10;99.90;;;;;;5046965;28;20611;-69
2022/06/04 07:15:49;;;;;;;8.85;4.45;;;14.10;99.90;;;;;;5010969;28;1058631;-69
2022/06/04 07:18:15;;;;;;;12.23;3.80;;;14.20;99.90;;;;;;5050776;28;20059;-68
2022/06/04 07:20:42;;;;;;;4.22;3.63;;;14.10;99.90;;;;;;5050055;28;20041;-69
2022/06/04 07:23:08;;;;;;;4.55;4.07;;;14.10;99.90;;;;;;5053750;28;20127;-68
2022/06/04 07:25:35;;;;;;;4.68;3.05;;;14.10;99.90;;;;;;5063502;28;20666;-72
2022/06/04 07:28:00;;;;;;;6.10;3.38;;;14.00;99.90;;;;;;5055485;28;20051;-73
2022/06/04 07:30:26;;;;;;;5.20;3.47;;;14.10;99.90;;;;;;5066583;28;20052;-67
2022/06/04 07:32:53;;;;;;;6.55;3.22;;;14.10;99.90;;;;;;5047895;28;20350;-70
2022/06/04 07:35:19;;;;;;;5.78;3.78;;;14.20;99.90;;;;;;5051189;28;20044;-71
2022/06/04 07:37:45;;;;;;;3.63;3.30;;;14.20;99.90;;;;;;5048108;28;20045;-71
2022/06/04 07:40:11;;;;;;;4.45;3.08;;;14.30;99.90;;;;;;5055339;28;20040;-70
2022/06/04 07:42:37;;;;;;;4.93;3.38;;;14.30;99.90;;;;;;5054079;28;20443;-70
2022/06/04 07:45:03;;;;;;;6.93;3.72;;;14.40;99.90;;;;;;5050942;28;20050;-70
2022/06/04 07:47:30;;;;;;;4.75;3.13;;;14.50;99.90;;;;;;5051847;28;20445;-71
2022/06/04 07:49:56;;;;;;;6.05;3.42;;;14.50;99.90;;;;;;5060898;28;20048;-69
2022/06/04 07:52:23;;;;;;;5.22;3.15;;;14.50;99.90;;;;;;5047024;28;20551;-70
2022/06/04 07:54:49;;;;;;;5.25;3.10;;;14.70;99.90;;;;;;5056988;28;20489;-71
2022/06/04 07:57:15;;;;;;;5.47;3.20;;;14.70;99.90;;;;;;5066153;28;20048;-70
2022/06/04 07:59:42;;;;;;;5.75;3.22;;;15.10;99.90;;;;;;5067668;28;20046;-71
2022/06/04 08:02:12;;;;;;;4.57;3.67;;;14.80;99.90;;;;;;5067419;28;20047;-71
2022/06/04 08:04:38;;;;;;;5.05;3.60;;;14.80;99.90;;;;;;5066946;28;20086;-70
2022/06/04 08:07:05;;;;;;;5.53;3.30;;;14.90;99.90;;;;;;5067104;28;20052;-70
2022/06/04 08:09:32;;;;;;;6.15;3.38;;;14.90;99.90;;;;;;5065635;28;20079;-71
2022/06/04 08:11:58;;;;;;;4.47;2.90;;;15.00;99.90;;;;;;5058934;28;20073;-70
2022/06/04 08:14:24;;;;;;;6.78;3.60;;;15.10;99.90;;;;;;5055351;28;20511;-70
2022/06/04 08:16:59;;;;;;;4.45;3.45;;;15.20;99.90;;;;;;5058559;28;20509;-70
2022/06/04 08:19:29;;;;;;;4.28;3.22;;;15.10;99.90;;;;;;5059080;28;20052;-69
2022/06/04 08:21:55;;;;;;;6.63;3.90;;;15.20;99.90;;;;;;5066684;28;20531;-69
2022/06/04 08:24:22;;;;;;;4.43;3.17;;;15.30;99.90;;;;;;5065798;28;20070;-69
2022/06/04 08:26:53;;;;;;;6.30;3.33;;;15.70;99.90;;;;;;5065517;28;20052;-69
2022/06/04 08:29:20;;;;;;;4.97;3.10;;;15.40;99.90;;;;;;5067079;28;20057;-69
2022/06/04 08:31:46;;;;;;;5.38;3.05;;;15.50;99.90;;;;;;5065855;28;20489;-70
2022/06/04 08:34:12;;;;;;;7.40;3.58;;;15.50;99.90;;;;;;5066011;28;20105;-72
2022/06/04 08:36:39;;;;;;;3.38;3.08;;;15.50;99.90;;;;;;5067529;28;20111;-71
2022/06/04 08:39:04;;;;;;;5.00;3.22;;;15.60;99.90;;;;;;5044408;28;20048;-71
2022/06/04 08:41:56;;;;;;;5.03;3.42;;;15.60;99.90;;;;;;5064479;28;20062;-72
2022/06/04 08:44:33;;;;;;;5.15;3.42;;;15.60;99.90;;;;;;5066841;28;20131;-72
2022/06/04 08:47:25;;;;;;;5.35;3.42;;;15.70;99.90;;;;;;5065778;28;20059;-72
2022/06/04 08:50:09;;;;;;;5.13;3.60;;;15.90;99.90;;;;;;5065452;28;20227;-72
2022/06/04 08:52:42;;;;;;;5.10;3.28;;;16.00;99.90;;;;;;5065873;28;20536;-71
2022/06/04 08:58:12;;;;;;;4.30;3.15;;;16.10;99.90;;;;;;5065992;28;20049;-72
2022/06/04 09:01:03;;;;;;;5.32;2.75;;;16.00;99.90;;;;;;5064447;28;20159;-72
2022/06/04 09:03:46;;;;;;;3.38;2.50;;;16.10;99.90;;;;;;5065444;28;20120;-72
2022/06/04 09:06:26;;;;;;;3.80;2.80;;;16.20;99.90;;;;;;5065292;28;20052;-72
2022/06/04 09:09:04;;;;;;;4.15;3.25;;;16.30;99.90;;;;;;5064176;28;20079;-71
2022/06/04 09:11:44;;;;;;;3.33;2.63;;;16.30;99.90;;;;;;5065686;28;20059;-71
2022/06/04 09:14:43;;;;;;;4.75;3.33;;;16.50;99.90;;;;;;5065630;28;20057;-72
2022/06/04 09:17:15;;;;;;;6.45;2.88;;;16.50;99.90;;;;;;5064499;28;20468;-72
2022/06/04 09:19:46;;;;;;;6.22;3.47;;;16.50;99.90;;;;;;5066323;28;20044;-72
2022/06/04 09:22:42;;;;;;;6.43;3.50;;;16.60;99.90;;;;;;5064177;28;20536;-71
2022/06/04 09:25:13;;;;;;;4.97;2.75;;;16.60;99.90;;;;;;5052675;28;20368;-71
2022/06/04 09:27:44;;;;;;;4.30;2.70;;;16.50;99.90;;;;;;5064804;28;20135;-72
2022/06/04 09:30:36;;;;;;;4.15;2.70;;;16.70;99.90;;;;;;5064276;28;20110;-72
2022/06/04 09:33:07;;;;;;;3.25;2.63;;;16.70;99.90;;;;;;5065816;28;20567;-71
2022/06/04 09:35:40;;;;;;;5.83;3.17;;;16.60;99.90;;;;;;5064298;28;20074;-71
2022/06/04 09:38:31;;;;;;;4.97;2.80;;;16.70;99.90;;;;;;5064281;28;20420;-72
2022/06/04 09:41:04;;;;;;;4.10;2.55;;;16.80;99.90;;;;;;5065963;28;20072;-72
2022/06/04 09:43:30;;;;;;;3.28;2.90;;;16.80;99.90;;;;;;5065616;28;20054;-72
2022/06/04 09:46:06;;;;;;;3.33;3.00;;;16.80;99.90;;;;;;5064130;28;20049;-72
2022/06/04 09:48:35;;;;;;;4.75;3.05;;;16.80;99.90;;;;;;5064572;28;20044;-72
2022/06/04 09:51:04;;;;;;;4.47;2.72;;;16.70;99.90;;;;;;5063532;28;20041;-72
2022/06/04 09:53:34;;;;;;;3.25;2.70;;;16.70;99.90;;;;;;5066395;28;20105;-71
2022/06/04 09:56:14;;;;;;;3.08;2.78;;;16.80;99.90;;;;;;5065039;28;20040;-71
2022/06/04 09:58:46;;;;;;;4.07;2.67;;;16.90;99.90;;;;;;5064597;28;20059;-72
2022/06/04 10:01:14;;;;;;;8.07;3.15;;;16.90;99.90;;;;;;5047678;28;20056;-71
2022/06/04 10:03:41;;;;;;;7.57;3.13;;;16.90;99.90;;;;;;5063922;28;20056;-71
2022/06/04 10:06:11;;;;;;;4.20;2.90;;;16.80;99.90;;;;;;5064810;28;20064;-72
2022/06/04 10:11:59;;;;;;;2.97;2.72;;;16.80;99.90;;;;;;5028086;28;20048;-72
2022/06/04 10:14:39;;;;;;;3.20;2.55;;;16.90;99.90;;;;;;5044701;28;20052;-71
2022/06/04 10:17:19;;;;;;;4.95;2.75;;;16.80;99.90;;;;;;5063101;28;20068;-71
2022/06/04 10:19:55;;;;;;;3.83;2.53;;;17.10;99.90;;;;;;5066228;28;20452;-72
2022/06/04 10:22:22;;;;;;;4.22;2.40;;;16.90;99.90;;;;;;5066519;28;20667;-72
2022/06/04 10:24:53;;;;;;;3.80;2.80;;;16.90;99.90;;;;;;5058935;28;20055;-71
2022/06/04 10:27:48;;;;;;;3.20;2.85;;;16.80;99.90;;;;;;5045247;28;20117;-71
2022/06/04 10:30:24;;;;;;;2.97;2.33;;;16.90;99.90;;;;;;5045663;28;20501;-72
2022/06/04 10:33:23;;;;;;;7.97;3.00;;;17.00;99.90;;;;;;5043283;28;20094;-71
2022/06/04 10:36:01;;;;;;;3.05;2.38;;;17.00;99.90;;;;;;5057785;28;20048;-71
2022/06/04 10:38:48;;;;;;;3.47;2.65;;;17.10;99.90;;;;;;5054419;28;20056;-71
2022/06/04 10:41:36;;;;;;;3.63;2.85;;;17.20;99.90;;;;;;5057697;28;20442;-71
2022/06/04 10:44:28;;;;;;;4.75;2.70;;;17.20;99.90;;;;;;5052804;28;20052;-71
2022/06/04 10:47:38;;;;;;;4.13;2.70;;;17.10;99.90;;;;;;5046674;28;20124;-72
2022/06/04 10:50:26;;;;;;;3.22;2.45;;;17.20;99.90;;;;;;4989761;28;20119;-71
2022/06/04 10:53:00;;;;;;;6.45;3.00;;;17.20;99.90;;;;;;5048013;28;20121;-72
2022/06/04 10:55:37;;;;;;;3.17;2.92;;;17.30;99.90;;;;;;5049245;28;20037;-71
2022/06/04 10:58:21;;;;;;;3.97;2.88;;;17.30;99.90;;;;;;5030181;28;20084;-71
2022/06/04 11:01:18;;;;;;;3.55;3.25;;;17.30;99.90;;;;;;5045991;28;20044;-69
2022/06/04 11:03:51;;;;;;;4.35;2.75;;;17.30;99.90;;;;;;5042341;28;20103;-71
2022/06/04 11:06:33;;;;;;;4.13;2.50;;;17.30;99.90;;;;;;5051457;28;20051;-71
2022/06/04 11:09:17;;;;;;;4.20;3.13;;;17.40;99.90;;;;;;5050061;28;20041;-71
2022/06/04 11:12:01;;;;;;;6.88;2.28;;;17.50;99.90;;;;;;5048818;28;20292;-70
2022/06/04 11:14:44;;;;;;;7.88;3.38;;;17.50;99.90;;;;;;5048416;28;20041;-70
2022/06/04 11:17:19;;;;;;;3.40;2.60;;;17.50;99.90;;;;;;5057068;28;20077;-71
2022/06/04 11:20:04;;;;;;;2.58;2.38;;;17.70;99.90;;;;;;5051140;28;20562;-71
2022/06/04 11:22:37;;;;;;;4.03;2.63;;;17.80;99.90;;;;;;5050814;28;20053;-71
2022/06/04 11:25:24;;;;;;;4.32;2.45;;;17.90;99.90;;;;;;5051044;28;20045;-71
2022/06/04 11:28:00;;;;;;;5.07;2.92;;;17.90;99.90;;;;;;5047717;28;20092;-70
2022/06/04 11:30:38;;;;;;;4.60;3.13;;;18.00;99.90;;;;;;5052802;28;20047;-70
2022/06/04 11:33:30;;;;;;;7.10;2.78;;;17.90;99.90;;;;;;5048031;28;20044;-70
2022/06/04 11:36:09;;;;;;;3.23;2.83;;;17.90;99.90;;;;;;5053780;28;20080;-70
2022/06/04 11:38:59;;;;;;;3.78;2.53;;;17.90;99.90;;;;;;5045880;28;20877;-71
2022/06/04 11:41:40;;;;;;;4.97;3.25;;;17.90;99.90;;;;;;5055120;28;20530;-70
2022/06/04 11:44:18;;;;;;;5.30;2.92;;;17.90;99.90;;;;;;5047076;28;20060;-71
2022/06/04 11:47:08;;;;;;;4.32;2.70;;;17.90;99.90;;;;;;5050241;28;20049;-70
2022/06/04 11:49:45;;;;;;;5.18;3.17;;;17.90;99.90;;;;;;5047778;28;20056;-71
2022/06/04 11:52:17;;;;;;;7.28;3.35;;;17.90;99.90;;;;;;5050135;28;20044;-70
2022/06/04 11:55:02;;;;;;;4.45;2.92;;;18.00;99.90;;;;;;5049609;28;20041;-71
2022/06/04 11:58:06;;;;;;;4.35;2.90;;;18.20;99.90;;;;;;5059312;28;20048;-70
2022/06/04 12:00:36;;;;;;;6.57;3.38;;;18.30;99.90;;;;;;5057576;28;20382;-71
2022/06/04 12:03:33;;;;;;;4.32;3.08;;;18.30;99.90;;;;;;5049197;28;20055;-70
2022/06/04 12:06:14;;;;;;;4.45;3.13;;;18.40;99.90;;;;;;5050052;28;20144;-69
2022/06/04 12:08:46;;;;;;;4.10;3.70;;;18.40;99.90;;;;;;5048358;28;20531;-70
2022/06/04 12:11:33;;;;;;;6.05;3.75;;;18.50;99.90;;;;;;5055188;28;20076;-68
2022/06/04 12:14:23;;;;;;;5.93;2.78;;;18.50;99.90;;;;;;5048416;28;20045;-69
2022/06/04 12:17:16;;;;;;;4.97;3.17;;;18.40;99.90;;;;;;5048983;28;20084;-70
2022/06/04 12:25:38;;;;;;;;;;;18.10;99.90;;;;;;5048526;28;20041;-69
2022/06/04 12:28:30;;;;;;;5.20;3.67;;;18.10;99.90;;;;;;5052255;28;19991;-68
2022/06/04 12:31:00;;;;;;;7.03;3.75;;;18.20;99.90;;;;;;5045866;28;20049;-68
2022/06/04 12:33:28;;;;;;;5.82;3.30;;;18.20;99.90;;;;;;5046610;28;20561;-69
2022/06/04 12:36:04;;;;;;;3.50;3.13;;;18.10;99.90;;;;;;5045920;28;20041;-68
2022/06/04 12:38:32;;;;;;;6.10;3.28;;;18.10;99.90;;;;;;5044542;28;20045;-68
2022/06/04 12:41:12;;;;;;;5.53;3.03;;;18.10;99.90;;;;;;5046509;28;20107;-69
2022/06/04 12:43:41;;;;;;;5.90;3.60;;;18.00;99.90;;;;;;5045034;28;20045;-68
2022/06/04 12:46:13;;;;;;;8.02;3.30;;;18.00;99.90;;;;;;5054061;28;20044;-68
2022/06/04 12:48:51;;;;;;;6.47;3.55;;;18.10;99.90;;;;;;5044843;28;20045;-68
2022/06/04 12:51:44;;;;;;;8.18;3.45;;;18.30;99.90;;;;;;5048215;28;20080;-68
2022/06/04 12:54:28;;;;;;;3.75;3.10;;;18.40;99.90;;;;;;5047476;28;20040;-68
2022/06/04 12:57:11;;;;;;;5.03;2.63;;;18.40;99.90;;;;;;5044119;28;20045;-68
2022/06/04 12:59:42;;;;;;;5.18;2.53;;;18.40;99.90;;;;;;5045325;28;20072;-68
2022/06/04 13:02:28;;;;;;;4.78;2.88;;;18.60;99.90;;;;;;5045565;28;21557;-68
2022/06/04 13:05:15;;;;;;;7.38;3.15;;;18.80;99.90;;;;;;5045038;28;20041;-68
2022/06/04 13:07:56;;;;;;;9.05;3.72;;;18.90;99.90;;;;;;5056416;28;21106;-69
2022/06/04 13:10:25;;;;;;;4.43;2.63;;;18.90;99.90;;;;;;5050179;28;20049;-68
2022/06/04 13:12:59;;;;;;;4.82;3.40;;;18.90;99.90;;;;;;5047187;28;20327;-69
2022/06/04 13:15:52;;;;;;;9.02;2.97;;;18.90;99.90;;;;;;5045535;28;20421;-68
2022/06/04 13:18:20;;;;;;;;;;;18.70;99.90;;;;;;5052530;28;20085;-70
2022/06/04 13:20:53;;;;;;;9.43;3.63;;;18.50;99.90;;;;;;5048171;28;19921;-69
2022/06/04 13:23:31;;;;;;;5.10;3.08;;;18.40;99.90;;;;;;5053455;28;20041;-68
2022/06/04 13:26:14;;;;;;;4.25;3.00;;;18.40;99.90;;;;;;5045660;28;20045;-68
2022/06/04 13:28:42;;;;;;;4.50;3.47;;;18.30;99.90;;;;;;5045043;28;20500;-69
2022/06/04 13:31:30;;;;;;;4.38;3.28;;;18.50;99.90;;;;;;5049926;28;20170;-68
2022/06/04 13:34:10;;;;;;;5.47;3.40;;;18.60;99.90;;;;;;5051458;28;20072;-69
2022/06/04 13:36:36;;;;;;;4.18;2.90;;;18.70;99.90;;;;;;5045215;28;20040;-70
2022/06/04 13:39:03;;;;;;;5.47;3.45;;;18.70;99.90;;;;;;5051381;28;20053;-71